2003 GINA (2003155S10172)


On this page: IBTrACS data - Map and Plots - Positions - Intensities - Original source data

Summary

Start Jun 4
End Jun 9
Basin SP
LMI 90 kt
Sources jtwc_sh
nadi
wellington
neumann
In WMO? Yes
Previous storm 2003 NANGKA (WP)
Previous in basin 2003 FILI (SP)
Concurrent storms 2003 LINFA (WP)
2003 NANGKA (WP)
2003 GINA (SP)
2003 EPI (SP)
2003 SOUDELOR (WP)
Next in basin 2003 EPI (SP)
Next storm 2003 EPI (SP)

top of page IBTrACS Data: File Access

top of page HURSAT Data: File Access

Image of storm

top of page Plots:

Map of storm track will not appear if FTP is down
Time series of cyclone Maximum Sustained Wind will not appear if FTP is down
Time series of cyclone Minimum Central Pressure will not appear if FTP is down

top of page Track Data:Position

jtwc_sh nadi wellington neumann
Date Lat Lon Lat Lon Lat Lon Lat Lon
2003-06-04 00:00:00 -10.0 171.7 -10.0 171.7
2003-06-04 06:00:00 -10.1 171.1 -10.4 171.5 -10.4 171.5 -10.1 171.1
2003-06-04 12:00:00 -10.3 170.5 -10.6 170.8 -10.6 170.8 -10.3 170.5
2003-06-04 18:00:00 -10.6 169.9 -10.9 170.2 -10.9 170.2 -10.6 169.9
2003-06-05 00:00:00 -11.2 169.4 -11.1 169.7 -11.1 169.7 -11.2 169.4
2003-06-05 06:00:00 -11.7 168.8 -11.3 169.1 -11.3 169.1 -11.7 168.8
2003-06-05 12:00:00 -12.3 168.3 -11.4 168.5 -11.4 168.5 -12.3 168.3
2003-06-05 18:00:00 -13.0 167.7 -12.1 168.0 -12.1 168.0 -13.0 167.7
2003-06-06 00:00:00 -13.6 166.9 -13.3 167.2 -13.3 167.2 -13.6 166.9
2003-06-06 06:00:00 -14.4 166.1 -14.3 166.3 -14.3 166.3 -14.4 166.1
2003-06-06 12:00:00 -15.1 165.1 -15.1 165.0 -15.1 165.0 -15.1 165.1
2003-06-06 18:00:00 -15.3 164.0 -15.4 163.8 -15.4 163.8 -15.3 164.0
2003-06-07 00:00:00 -15.7 163.1 -15.8 163.0 -15.8 163.0 -15.7 163.1
2003-06-07 06:00:00 -16.3 162.6 -16.3 162.5 -16.3 162.5 -16.3 162.6
2003-06-07 12:00:00 -16.8 162.1 -16.8 162.0 -16.8 162.0 -16.8 162.1
2003-06-07 18:00:00 -17.3 161.8 -17.2 161.8 -17.2 161.8 -17.3 161.8
2003-06-08 00:00:00 -17.6 161.9 -17.5 161.8 -17.5 161.8 -17.6 161.9
2003-06-08 06:00:00 -17.7 162.3 -17.7 162.1 -17.7 162.1 -17.7 162.3
2003-06-08 12:00:00 -18.0 163.1 -17.5 162.3 -17.5 162.3 -18.0 163.1
2003-06-08 18:00:00 -17.6 163.7 -17.2 162.2 -17.2 162.2 -17.6 163.7
2003-06-09 00:00:00 -17.0 163.2 -16.8 162.0 -16.8 162.0 -17.0 163.2
2003-06-09 06:00:00 -16.5 162.0 -16.5 162.0

top of pageTrack Data:Intensity

jtwc_sh nadi wellington neumann
Date Wind Pres Wind Pres Wind Pres Wind Pres
2003-06-04 00:00:00 25. 1002. 25.
2003-06-04 06:00:00 30. 1000. 20. 1003. 20. 1003. 30.
2003-06-04 12:00:00 30. 1000. 25. 998. 25. 998. 30.
2003-06-04 18:00:00 30. 1000. 25. 998. 25. 998. 30.
2003-06-05 00:00:00 30. 1000. 30. 997. 30. 997. 30.
2003-06-05 06:00:00 45. 991. 35. 995. 35. 995. 45.
2003-06-05 12:00:00 55. 984. 45. 987. 45. 987. 55.
2003-06-05 18:00:00 55. 984. 50. 985. 50. 985. 55.
2003-06-06 00:00:00 55. 984. 55. 980. 55. 980. 55.
2003-06-06 06:00:00 55. 984. 55. 980. 55. 980. 55.
2003-06-06 12:00:00 60. 980. 60. 975. 60. 975. 60.
2003-06-06 18:00:00 65. 976. 60. 975. 60. 975. 65.
2003-06-07 00:00:00 75. 967. 70. 965. 70. 965. 75.
2003-06-07 06:00:00 85. 958. 80. 955. 80. 955. 85.
2003-06-07 12:00:00 90. 954. 80. 955. 80. 955. 90.
2003-06-07 18:00:00 90. 954. 80. 950. 80. 950. 90.
2003-06-08 00:00:00 90. 954. 80. 955. 80. 955. 90.
2003-06-08 06:00:00 75. 967. 70. 965. 70. 965. 75.
2003-06-08 12:00:00 65. 976. 60. 975. 60. 975. 65.
2003-06-08 18:00:00 55. 984. 45. 987. 45. 987. 55.
2003-06-09 00:00:00 45. 991. 35. 995. 35. 995. 45.
2003-06-09 06:00:00 30. 997. 30. 997.

top of page Links to source data

Source Source file Format
jtwc_sh bsh292003.txt ATCF
nadi RSMC-Nadi-2002-03-BT-Data.txt:Line=317:GINA Text table
wellington TC_BT_1967_2006.csv:Line=7418:GINA Text table
neumann tracks.sh:Storm=1279:GINA:BSH292003:JTWC HURDAT